Time;durP1;ratioP1;P1;durP2;ratioP2;P2;SDS_P1;SDS_P2;PMS_P1;PMS_P2;Temp;Humidity;BMP_temperature;BMP_pressure;BME280_temperature;BME280_humidity;BME280_pressure;Samples;Min_cycle;Max_cycle;Signal;HPM_P1;HPM_P2
2022/11/25 00:01:30;;;;;;;4.70;1.30;;;;;;;6.17;91.80;98982.72;4935732;29;20063;-49
2022/11/25 00:04:17;;;;;;;6.50;2.13;;;;;;;6.16;91.91;98991.34;4933155;29;20530;-48
2022/11/25 00:07:04;;;;;;;2.72;1.15;;;;;;;6.16;91.83;99002.31;4935489;29;20075;-51
2022/11/25 00:09:51;;;;;;;3.78;1.02;;;;;;;6.15;91.70;99012.50;4935825;29;20051;-46
2022/11/25 00:12:39;;;;;;;4.60;1.40;;;;;;;6.14;91.83;99013.69;4935104;29;20047;-48
2022/11/25 00:15:26;;;;;;;8.75;1.50;;;;;;;6.14;91.96;99019.19;4935029;29;20055;-46
2022/11/25 00:18:13;;;;;;;2.10;0.95;;;;;;;6.12;91.85;99026.97;4934952;29;20903;-46
2022/11/25 00:21:12;;;;;;;3.97;1.42;;;;;;;6.10;91.89;99034.78;4934036;29;20410;-47
2022/11/25 00:24:01;;;;;;;7.45;2.20;;;;;;;6.09;92.02;99031.22;4934181;29;20494;-47
2022/11/25 00:26:48;;;;;;;3.30;1.00;;;;;;;6.11;92.22;99042.66;4933832;29;20059;-46
2022/11/25 00:29:35;;;;;;;8.90;1.55;;;;;;;6.13;91.99;99047.78;4928855;29;20079;-46
2022/11/25 00:32:22;;;;;;;5.47;1.33;;;;;;;6.12;92.05;99057.97;4930048;29;20056;-46
2022/11/25 00:35:09;;;;;;;7.50;1.70;;;;;;;6.13;91.96;99064.28;4931726;29;20054;-48
2022/11/25 00:37:56;;;;;;;7.53;1.30;;;;;;;6.14;92.00;99063.13;4929827;29;20063;-46
2022/11/25 00:44:34;;;;;;;8.15;2.17;;;;;;;6.18;92.10;99085.19;4928235;29;20056;-46
2022/11/25 00:46:56;;;;;;;6.20;1.17;;;;;;;6.21;91.85;99101.75;4929505;29;20410;-47
2022/11/25 00:49:45;;;;;;;4.38;1.23;;;;;;;6.24;91.66;99114.78;4929888;29;20052;-45
2022/11/25 00:52:35;;;;;;;5.35;1.50;;;;;;;6.22;91.72;99122.59;4918873;29;20056;-47
2022/11/25 00:55:22;;;;;;;8.90;1.20;;;;;;;6.23;91.87;99118.69;4930690;29;20059;-45
2022/11/25 00:58:09;;;;;;;8.80;2.03;;;;;;;6.26;91.75;99128.97;4919268;29;20059;-45
2022/11/25 01:01:00;;;;;;;7.50;1.55;;;;;;;6.26;91.63;99136.41;4930197;29;20066;-46
2022/11/25 01:03:49;;;;;;;6.55;1.75;;;;;;;6.24;91.56;99157.97;4923604;29;20438;-45
2022/11/25 01:06:36;;;;;;;6.07;1.40;;;;;;;6.21;91.66;99148.47;4919321;29;20051;-46
2022/11/25 01:09:23;;;;;;;7.60;1.58;;;;;;;6.19;91.60;99156.28;4930388;29;20059;-49
2022/11/25 01:12:10;;;;;;;7.70;1.52;;;;;;;6.21;91.61;99164.97;4927388;29;20055;-45
2022/11/25 01:14:57;;;;;;;3.95;1.42;;;;;;;6.22;91.45;99183.06;4931001;29;20059;-51
2022/11/25 01:17:44;;;;;;;8.68;3.60;;;;;;;6.23;91.51;99172.84;4930670;29;20432;-45
2022/11/25 01:20:31;;;;;;;8.88;1.63;;;;;;;6.22;91.35;99187.75;4922918;29;20048;-45
2022/11/25 01:23:18;;;;;;;8.32;2.10;;;;;;;6.19;91.41;99211.25;4929756;29;20044;-45
2022/11/25 01:26:09;;;;;;;4.43;1.48;;;;;;;6.20;91.36;99206.53;4928593;29;20059;-49
2022/11/25 01:29:01;;;;;;;9.38;1.80;;;;;;;6.17;91.41;99210.78;4919649;29;20149;-50
2022/11/25 01:31:48;;;;;;;12.57;4.63;;;;;;;6.16;91.21;99220.19;4928809;29;20063;-45
2022/11/25 01:34:36;;;;;;;7.90;3.10;;;;;;;6.13;91.11;99221.69;4915568;29;20063;-46
2022/11/25 01:37:23;;;;;;;7.10;1.10;;;;;;;6.12;91.41;99241.25;4929960;29;20070;-45
2022/11/25 01:40:10;;;;;;;11.20;1.90;;;;;;;6.08;91.38;99249.44;4927070;29;20495;-45
2022/11/25 01:42:57;;;;;;;6.10;1.73;;;;;;;6.09;91.22;99255.69;4927163;29;20177;-45
2022/11/25 01:45:44;;;;;;;11.80;1.40;;;;;;;6.07;91.35;99260.75;4917876;29;20124;-48
2022/11/25 01:48:48;;;;;;;6.40;2.00;;;;;;;6.05;91.34;99266.59;4929861;29;20514;-45
2022/11/25 01:51:58;;;;;;;13.25;1.92;;;;;;;6.04;91.19;99273.25;4929833;29;20410;-50
2022/11/25 01:55:00;;;;;;;8.90;1.52;;;;;;;6.04;91.26;99276.00;4902062;29;20056;-46
2022/11/25 01:57:53;;;;;;;7.20;1.50;;;;;;;6.09;91.27;99285.91;4929545;29;20441;-45
2022/11/25 02:00:40;;;;;;;17.52;2.15;;;;;;;6.10;91.16;99290.28;4928306;29;20498;-45
2022/11/25 02:03:33;;;;;;;5.10;1.40;;;;;;;6.11;91.33;99297.38;4928719;29;20476;-48
2022/11/25 02:06:24;;;;;;;7.55;2.13;;;;;;;6.11;91.20;99302.88;4929320;29;20055;-47
2022/11/25 02:09:13;;;;;;;6.68;1.13;;;;;;;6.11;91.03;99309.19;4928779;29;20051;-49
2022/11/25 02:12:01;;;;;;;14.30;2.53;;;;;;;6.13;91.08;99311.56;4925202;29;20051;-54
2022/11/25 02:14:50;;;;;;;10.02;2.85;;;;;;;6.12;90.90;99321.75;4928097;29;20066;-45
2022/11/25 02:17:37;;;;;;;12.45;2.70;;;;;;;6.12;90.83;99329.19;4928612;29;20482;-45
2022/11/25 02:20:24;;;;;;;3.17;0.77;;;;;;;6.12;91.09;99342.91;4927401;29;20067;-46
2022/11/25 02:23:28;;;;;;;14.75;2.60;;;;;;;6.11;90.65;99344.09;4929082;29;20048;-45
2022/11/25 02:26:16;;;;;;;8.80;1.67;;;;;;;6.12;90.85;99348.41;4927510;29;20074;-46
2022/11/25 02:29:03;;;;;;;4.65;1.70;;;;;;;6.12;90.64;99364.91;4928758;29;20066;-45
2022/11/25 02:31:50;;;;;;;9.52;2.08;;;;;;;6.10;90.74;99358.97;4928067;29;20517;-45
2022/11/25 02:34:46;;;;;;;10.18;2.10;;;;;;;6.12;90.56;99367.66;4928386;29;20059;-46
2022/11/25 02:37:33;;;;;;;12.10;1.77;;;;;;;6.14;90.72;99374.41;4928711;29;20091;-48
2022/11/25 02:40:21;;;;;;;13.93;1.80;;;;;;;6.14;90.81;99390.88;4927481;29;20047;-47
2022/11/25 02:43:08;;;;;;;12.52;3.20;;;;;;;6.14;90.62;99395.59;4928246;29;20059;-46
2022/11/25 02:46:08;;;;;;;11.18;2.05;;;;;;;6.16;90.47;99398.00;4929023;29;20062;-46
2022/11/25 02:48:57;;;;;;;17.10;2.70;;;;;;;6.15;90.48;99394.44;4928538;29;20051;-47
2022/11/25 02:52:00;;;;;;;21.85;2.97;;;;;;;6.13;90.61;99410.47;4914957;29;20059;-45
2022/11/25 02:54:48;;;;;;;10.85;2.05;;;;;;;6.13;90.54;99424.22;4928010;29;20463;-45
2022/11/25 02:57:35;;;;;;;21.73;3.78;;;;;;;6.16;90.37;99420.78;4926146;29;20403;-45
2022/11/25 03:02:57;;;;;;;5.82;1.50;;;;;;;6.19;90.21;99422.84;4972163;23;20129;-51
2022/11/25 03:05:44;;;;;;;9.40;2.28;;;;;;;6.21;90.22;99430.72;4952286;28;20059;-51
2022/11/25 03:08:31;;;;;;;11.32;4.45;;;;;;;6.20;90.09;99438.16;4966700;28;20049;-44
2022/11/25 03:11:18;;;;;;;9.68;1.60;;;;;;;6.22;89.97;99435.88;4964722;28;20057;-46
2022/11/25 03:14:05;;;;;;;15.75;4.78;;;;;;;6.21;89.94;99445.25;4966710;28;20412;-46
2022/11/25 03:16:52;;;;;;;8.60;1.17;;;;;;;6.22;89.88;99451.56;4958425;28;20047;-47
2022/11/25 03:19:39;;;;;;;8.05;2.03;;;;;;;6.21;89.93;99455.44;4966146;28;20086;-44
2022/11/25 03:22:26;;;;;;;10.68;3.47;;;;;;;6.21;89.96;99466.44;4965373;28;20456;-44
2022/11/25 03:25:14;;;;;;;11.52;2.20;;;;;;;6.22;89.69;99474.34;4966647;28;20621;-44
2022/11/25 03:28:01;;;;;;;7.95;1.80;;;;;;;6.20;89.63;99473.88;4966205;28;20058;-45
2022/11/25 03:30:48;;;;;;;10.48;1.77;;;;;;;6.21;89.79;99480.97;4955987;28;20109;-44
2022/11/25 03:33:35;;;;;;;11.10;2.10;;;;;;;6.20;89.48;99482.13;4964981;28;20062;-45
2022/11/25 03:36:22;;;;;;;11.45;1.75;;;;;;;6.18;89.70;99500.91;4961689;28;20078;-44
2022/11/25 03:39:09;;;;;;;7.90;1.73;;;;;;;6.16;89.69;99494.16;4966461;28;20062;-44
2022/11/25 03:41:56;;;;;;;9.57;1.77;;;;;;;6.15;89.69;99504.34;4965465;28;20043;-46
2022/11/25 03:44:43;;;;;;;11.20;1.63;;;;;;;6.13;89.79;99514.88;4966929;28;20058;-44
2022/11/25 03:47:30;;;;;;;14.82;2.28;;;;;;;6.13;89.58;99520.38;4965146;28;20054;-44
2022/11/25 03:50:17;;;;;;;9.60;2.28;;;;;;;6.11;89.67;99518.00;4966162;28;20460;-49
2022/11/25 03:53:04;;;;;;;9.88;1.98;;;;;;;6.10;89.74;99516.38;4965453;28;20471;-45
2022/11/25 03:55:51;;;;;;;11.65;1.75;;;;;;;6.10;89.47;99526.56;4966719;28;20051;-45
2022/11/25 03:58:38;;;;;;;6.97;2.15;;;;;;;6.10;89.74;99526.56;4966196;28;20054;-45
2022/11/25 04:01:25;;;;;;;12.57;1.52;;;;;;;6.09;89.64;99531.25;4959036;28;20121;-50
2022/11/25 04:04:14;;;;;;;9.60;2.15;;;;;;;6.05;89.56;99524.84;4967908;28;20062;-48
2022/11/25 04:07:01;;;;;;;9.85;1.45;;;;;;;6.04;89.58;99538.94;4970848;28;20050;-44
2022/11/25 04:09:47;;;;;;;8.00;1.70;;;;;;;6.02;89.91;99552.22;4960887;28;20053;-44
2022/11/25 04:12:46;;;;;;;6.38;2.25;;;;;;;6.02;89.77;99557.72;4958268;28;20051;-45
2022/11/25 04:15:33;;;;;;;16.13;2.72;;;;;;;6.02;89.50;99563.19;4970873;28;20063;-46
2022/11/25 04:18:20;;;;;;;23.35;5.18;;;;;;;6.03;89.54;99584.03;4971346;28;20059;-45
2022/11/25 04:21:07;;;;;;;12.63;2.17;;;;;;;6.03;89.84;99573.06;4969060;28;20409;-44
2022/11/25 04:23:54;;;;;;;6.78;1.65;;;;;;;6.04;89.74;99588.38;4956808;28;20061;-45
2022/11/25 04:26:41;;;;;;;7.18;1.88;;;;;;;6.04;89.66;99591.94;4969151;28;20047;-44
2022/11/25 04:29:28;;;;;;;12.48;2.40;;;;;;;6.02;89.44;99586.00;4969417;28;20460;-45
2022/11/25 04:32:15;;;;;;;9.60;1.33;;;;;;;6.01;89.63;99595.34;4968750;28;20050;-49
2022/11/25 04:35:02;;;;;;;10.93;1.40;;;;;;;5.99;89.51;99586.66;4969542;28;20432;-44
2022/11/25 04:37:49;;;;;;;5.70;1.52;;;;;;;6.00;89.45;99598.47;4967998;28;20054;-44
2022/11/25 04:40:36;;;;;;;7.72;1.38;;;;;;;5.99;89.44;99605.09;4955833;28;20050;-45
2022/11/25 04:43:23;;;;;;;6.20;2.08;;;;;;;6.00;89.61;99609.44;4960211;28;20153;-44
2022/11/25 04:46:16;;;;;;;28.25;4.05;;;;;;;5.99;89.91;99618.81;4968453;28;20065;-44
2022/11/25 04:49:03;;;;;;;8.80;1.63;;;;;;;5.97;89.56;99621.94;4968055;28;20055;-44
2022/11/25 04:51:50;;;;;;;9.70;1.50;;;;;;;5.96;89.59;99630.50;4968436;28;20432;-45
2022/11/25 04:54:37;;;;;;;13.98;2.22;;;;;;;5.95;89.52;99632.47;4968562;28;20059;-46
2022/11/25 04:57:24;;;;;;;21.85;3.50;;;;;;;5.94;89.71;99649.28;4968722;28;20054;-45
2022/11/25 05:00:11;;;;;;;11.82;1.98;;;;;;;5.94;89.74;99639.09;4961160;28;20058;-44
2022/11/25 05:02:58;;;;;;;22.42;4.15;;;;;;;5.96;89.70;99641.47;4966455;28;20062;-45
2022/11/25 05:05:45;;;;;;;17.38;1.98;;;;;;;5.97;89.75;99652.16;4968872;28;20065;-45
2022/11/25 05:08:32;;;;;;;9.00;1.58;;;;;;;5.97;89.55;99665.06;4969013;28;20097;-47
2022/11/25 05:11:19;;;;;;;10.35;1.90;;;;;;;5.98;89.59;99669.44;4965898;28;20054;-44
2022/11/25 05:14:06;;;;;;;11.52;1.80;;;;;;;5.97;89.38;99663.13;4962123;28;20070;-44
2022/11/25 05:16:53;;;;;;;7.13;2.00;;;;;;;5.98;89.53;99661.19;4949932;28;20062;-44
2022/11/25 05:19:40;;;;;;;8.90;1.85;;;;;;;5.99;89.28;99676.53;4964761;28;20051;-45
2022/11/25 05:22:29;;;;;;;6.32;1.27;;;;;;;5.97;89.32;99671.38;4955100;28;20162;-45
2022/11/25 05:25:19;;;;;;;10.18;1.70;;;;;;;5.98;88.90;99672.19;4968776;28;20080;-49
2022/11/25 05:28:06;;;;;;;6.72;1.33;;;;;;;5.98;88.87;99683.94;4968668;28;20070;-44
2022/11/25 05:30:53;;;;;;;4.22;1.20;;;;;;;6.00;88.71;99695.44;4968046;28;20050;-44
2022/11/25 05:33:40;;;;;;;8.55;1.67;;;;;;;6.01;88.92;99698.97;4949303;28;20059;-45
2022/11/25 05:36:28;;;;;;;8.35;2.20;;;;;;;5.99;88.76;99701.25;4963023;28;20445;-45
2022/11/25 05:39:15;;;;;;;8.52;1.77;;;;;;;5.99;88.82;99709.47;4968079;28;20076;-48
2022/11/25 05:42:02;;;;;;;8.55;2.40;;;;;;;5.97;88.80;99714.53;4967000;28;20058;-44
2022/11/25 05:44:49;;;;;;;16.15;1.67;;;;;;;5.97;88.55;99720.03;4967540;28;20047;-45
2022/11/25 05:47:35;;;;;;;10.32;1.33;;;;;;;5.98;88.70;99725.16;4955705;28;20563;-45
2022/11/25 05:50:22;;;;;;;7.75;1.83;;;;;;;5.98;88.54;99735.38;4964401;28;20121;-45
2022/11/25 05:53:10;;;;;;;8.07;1.95;;;;;;;5.99;88.62;99757.00;4967470;28;20062;-44
2022/11/25 05:56:03;;;;;;;13.27;2.25;;;;;;;6.00;88.39;99752.31;4968010;28;20062;-44
2022/11/25 05:58:50;;;;;;;9.80;2.45;;;;;;;6.00;88.33;99763.31;4953212;28;20268;-45
2022/11/25 06:01:37;;;;;;;9.02;1.75;;;;;;;5.98;88.35;99779.31;4966457;28;20605;-45
2022/11/25 06:04:24;;;;;;;7.57;1.30;;;;;;;5.97;88.41;99785.94;4966981;28;20078;-45
2022/11/25 06:07:11;;;;;;;11.32;1.70;;;;;;;5.98;88.47;99796.59;4966951;28;20047;-44
2022/11/25 06:09:58;;;;;;;6.90;2.00;;;;;;;5.99;88.25;99800.16;4954832;28;20420;-44
2022/11/25 06:12:49;;;;;;;12.70;2.78;;;;;;;5.99;88.25;99811.13;4956529;28;20043;-47
2022/11/25 06:15:41;;;;;;;10.65;4.45;;;;;;;5.98;88.26;99815.03;4967399;28;20082;-45
2022/11/25 06:18:28;;;;;;;16.25;2.97;;;;;;;5.99;88.23;99817.44;4966269;28;20061;-45
2022/11/25 06:21:15;;;;;;;7.95;1.52;;;;;;;6.01;88.33;99822.63;4964742;28;20388;-46
2022/11/25 06:24:02;;;;;;;6.20;1.60;;;;;;;5.99;87.91;99838.59;4966029;28;20309;-54
2022/11/25 06:26:49;;;;;;;7.63;1.70;;;;;;;5.99;88.03;99833.91;4967149;28;20358;-47
2022/11/25 06:29:36;;;;;;;11.45;2.00;;;;;;;5.99;87.98;99849.59;4966999;28;20089;-44
2022/11/25 06:32:23;;;;;;;4.93;1.40;;;;;;;6.00;87.98;99862.22;4966581;28;20057;-45
2022/11/25 06:35:10;;;;;;;9.18;1.65;;;;;;;6.00;88.08;99853.97;4966656;28;20058;-44
2022/11/25 06:37:58;;;;;;;9.38;2.60;;;;;;;5.99;87.98;99866.09;4966169;28;20054;-46
2022/11/25 06:40:45;;;;;;;10.70;1.98;;;;;;;6.02;88.17;99859.91;4966305;28;20051;-49
2022/11/25 06:43:32;;;;;;;9.98;1.73;;;;;;;6.03;88.09;99861.53;4967433;28;20047;-44
2022/11/25 06:46:19;;;;;;;8.55;1.65;;;;;;;6.02;87.91;99857.16;4961075;28;20051;-47
2022/11/25 06:49:11;;;;;;;16.20;2.45;;;;;;;6.03;88.35;99867.03;4955277;28;20052;-45
2022/11/25 06:51:57;;;;;;;11.77;1.83;;;;;;;6.04;88.31;99879.63;4963330;28;20059;-45
2022/11/25 06:54:45;;;;;;;7.88;1.58;;;;;;;6.05;87.95;99887.53;4960064;28;20062;-44
2022/11/25 06:57:31;;;;;;;15.10;2.53;;;;;;;6.06;88.11;99891.09;4964533;28;20053;-46
2022/11/25 07:00:19;;;;;;;8.18;2.20;;;;;;;6.06;88.13;99904.84;4959924;28;20055;-45
2022/11/25 07:03:06;;;;;;;8.85;1.60;;;;;;;6.02;87.93;99893.69;4964835;28;20264;-44
2022/11/25 07:05:56;;;;;;;13.40;2.97;;;;;;;6.02;88.39;99903.88;4966119;28;20082;-44
2022/11/25 07:08:43;;;;;;;9.43;1.55;;;;;;;6.02;88.14;99890.16;4966873;28;20051;-44
2022/11/25 07:11:35;;;;;;;18.02;2.00;;;;;;;6.05;88.31;99903.22;4965497;28;20488;-44
2022/11/25 07:14:22;;;;;;;7.83;1.87;;;;;;;6.06;88.26;99910.31;4967012;28;20051;-46
2022/11/25 07:17:09;;;;;;;10.00;1.95;;;;;;;6.06;88.34;99916.59;4960656;28;20110;-45
2022/11/25 07:19:58;;;;;;;6.97;1.60;;;;;;;6.08;88.42;99917.09;4968252;28;20131;-44
2022/11/25 07:22:45;;;;;;;11.80;2.55;;;;;;;6.11;88.26;99919.19;4966351;28;20058;-45
2022/11/25 07:25:32;;;;;;;8.95;2.30;;;;;;;6.11;88.18;99918.38;4968598;28;20047;-44
2022/11/25 07:28:19;;;;;;;8.98;2.13;;;;;;;6.10;88.29;99916.75;4967270;28;20042;-47
2022/11/25 07:31:16;;;;;;;11.90;1.80;;;;;;;6.08;88.22;99932.78;4967088;28;20651;-49
2022/11/25 07:34:19;;;;;;;9.25;1.85;;;;;;;6.06;88.26;99932.31;4965835;28;20542;-48
2022/11/25 07:37:07;;;;;;;9.50;2.00;;;;;;;6.06;88.11;99935.06;4967829;28;20053;-45
2022/11/25 07:39:53;;;;;;;11.02;2.28;;;;;;;6.04;88.55;99938.13;4971216;28;20089;-45
2022/11/25 07:42:40;;;;;;;10.25;2.03;;;;;;;6.03;88.50;99943.97;4969042;28;20141;-45
2022/11/25 07:45:27;;;;;;;8.73;1.58;;;;;;;6.02;88.44;99948.66;4962630;28;20444;-45
2022/11/25 07:48:14;;;;;;;15.77;2.80;;;;;;;6.02;88.53;99954.16;4969636;28;20061;-45
2022/11/25 07:51:01;;;;;;;10.75;2.80;;;;;;;6.03;88.43;99966.75;4962413;28;20414;-45
2022/11/25 07:53:49;;;;;;;13.85;3.20;;;;;;;6.03;88.70;99971.44;4969302;28;20382;-44
2022/11/25 07:56:39;;;;;;;9.35;2.45;;;;;;;6.04;88.74;99968.34;4970362;28;20042;-44
2022/11/25 07:59:26;;;;;;;14.95;2.65;;;;;;;6.05;88.82;99986.47;4968270;28;20039;-44
2022/11/25 08:02:13;;;;;;;6.90;2.13;;;;;;;6.03;88.67;99983.25;4969354;28;20517;-44
2022/11/25 08:05:00;;;;;;;11.50;2.13;;;;;;;6.05;89.09;99994.69;4969928;28;20149;-44
2022/11/25 08:07:47;;;;;;;15.40;2.30;;;;;;;6.10;88.90;100000.00;4967687;28;20052;-45
2022/11/25 08:10:34;;;;;;;13.05;2.22;;;;;;;6.13;89.05;100004.03;4970905;28;20068;-45
2022/11/25 08:13:22;;;;;;;8.27;2.03;;;;;;;6.13;89.12;100015.00;4969874;28;20588;-45
2022/11/25 08:16:14;;;;;;;11.30;2.03;;;;;;;6.12;89.12;100022.44;4968162;28;20058;-45
2022/11/25 08:19:05;;;;;;;8.95;2.33;;;;;;;6.17;89.47;100020.66;4968743;28;20069;-45
2022/11/25 08:21:53;;;;;;;17.40;2.30;;;;;;;6.21;89.27;100030.66;4968264;28;20078;-45
2022/11/25 08:24:40;;;;;;;10.27;1.98;;;;;;;6.25;89.61;100045.31;4968758;28;20046;-45
2022/11/25 08:27:27;;;;;;;13.27;3.05;;;;;;;6.27;89.42;100048.56;4969214;28;20472;-47
2022/11/25 08:30:14;;;;;;;12.77;2.47;;;;;;;6.32;89.72;100064.84;4956687;28;20055;-45
2022/11/25 08:33:03;;;;;;;14.95;2.95;;;;;;;6.35;89.51;100058.69;4969906;28;20497;-45
2022/11/25 08:35:53;;;;;;;13.60;2.35;;;;;;;6.38;89.63;100070.97;4971789;28;20053;-45
2022/11/25 08:38:42;;;;;;;10.18;2.20;;;;;;;6.39;89.51;100073.38;4966165;28;20039;-47
2022/11/25 08:41:32;;;;;;;15.45;4.03;;;;;;;6.39;89.66;100078.88;4969403;28;20137;-49
2022/11/25 08:44:19;;;;;;;15.60;2.33;;;;;;;6.39;89.25;100089.88;4969938;28;20043;-45
2022/11/25 08:47:06;;;;;;;12.57;3.05;;;;;;;6.42;89.47;100094.69;4971859;28;20432;-45
2022/11/25 08:49:53;;;;;;;11.40;2.13;;;;;;;6.43;89.67;100101.81;4969836;28;20043;-45
2022/11/25 08:52:41;;;;;;;14.68;2.25;;;;;;;6.43;89.68;100101.81;4969904;28;20489;-46
2022/11/25 08:55:28;;;;;;;10.15;2.45;;;;;;;6.44;89.67;100125.41;4971169;28;20057;-45
2022/11/25 08:58:15;;;;;;;14.18;2.28;;;;;;;6.51;89.66;100125.69;4948599;28;20074;-45
2022/11/25 09:01:04;;;;;;;16.63;4.13;;;;;;;6.58;89.79;100134.22;4969177;28;20055;-45
2022/11/25 09:03:54;;;;;;;11.90;1.70;;;;;;;6.65;89.44;100134.50;4954108;28;20055;-47
2022/11/25 09:06:41;;;;;;;13.25;2.17;;;;;;;6.75;89.63;100142.34;4970853;28;20050;-46
2022/11/25 09:09:28;;;;;;;12.70;2.00;;;;;;;6.82;89.55;100143.78;4969883;28;20054;-45
2022/11/25 09:12:15;;;;;;;7.93;1.80;;;;;;;6.88;89.59;100145.19;4970006;28;20059;-49
2022/11/25 09:15:02;;;;;;;13.38;3.17;;;;;;;6.95;89.47;100145.44;4958129;28;20063;-46
2022/11/25 09:18:00;;;;;;;8.20;2.97;;;;;;;7.03;89.40;100141.81;4969964;28;20055;-46
2022/11/25 09:20:47;;;;;;;9.45;1.70;;;;;;;7.09;89.32;100141.31;4955910;28;20516;-45
2022/11/25 09:23:34;;;;;;;10.63;2.15;;;;;;;7.16;89.37;100163.56;4973945;28;20050;-44
2022/11/25 09:26:26;;;;;;;12.93;2.20;;;;;;;7.22;89.40;100177.94;4972750;28;20050;-51
2022/11/25 09:29:13;;;;;;;8.85;3.05;;;;;;;7.27;89.22;100164.78;4970611;28;20057;-44
2022/11/25 09:32:00;;;;;;;15.13;1.98;;;;;;;7.33;89.27;100162.63;4968340;28;20070;-44
2022/11/25 09:34:47;;;;;;;8.35;2.45;;;;;;;7.42;88.99;100188.13;4969807;28;20485;-44
2022/11/25 09:37:34;;;;;;;12.73;2.15;;;;;;;7.46;89.02;100189.06;4969267;28;20057;-44
2022/11/25 09:40:27;;;;;;;13.73;2.38;;;;;;;7.47;88.85;100190.66;4968651;28;20051;-44
2022/11/25 09:46:58;;;;;;;9.02;2.42;;;;;;;7.51;89.05;100213.66;4969158;28;20047;-44
2022/11/25 09:49:57;;;;;;;13.50;2.20;;;;;;;7.55;89.07;100214.56;4969481;28;20058;-44
2022/11/25 09:52:50;;;;;;;15.32;2.20;;;;;;;7.56;88.94;100216.19;4968902;28;20053;-45
2022/11/25 09:55:44;;;;;;;10.35;2.70;;;;;;;7.60;88.87;100222.63;4967954;28;20128;-45
2022/11/25 09:58:34;;;;;;;19.48;3.38;;;;;;;7.62;88.95;100225.06;4967430;28;20058;-53
2022/11/25 10:01:24;;;;;;;9.38;1.85;;;;;;;7.66;88.88;100232.31;4968578;28;20043;-44
2022/11/25 10:04:31;;;;;;;15.32;2.22;;;;;;;7.69;88.87;100248.16;4970099;28;20054;-52
2022/11/25 10:07:27;;;;;;;8.73;2.47;;;;;;;7.73;88.88;100249.09;4963533;28;20047;-45
2022/11/25 10:10:24;;;;;;;10.52;2.65;;;;;;;7.78;88.67;100254.38;4966142;28;20055;-45
2022/11/25 10:13:37;;;;;;;12.32;3.67;;;;;;;7.84;88.58;100261.31;4967695;28;20051;-51
2022/11/25 10:16:48;;;;;;;8.10;1.88;;;;;;;7.87;88.61;100282.69;4969672;28;20062;-50
2022/11/25 10:19:51;;;;;;;5.70;1.90;;;;;;;7.92;88.80;100287.19;4954540;28;20049;-45
2022/11/25 10:22:44;;;;;;;12.65;2.20;;;;;;;7.95;88.63;100295.59;4966561;28;20082;-45
2022/11/25 10:25:43;;;;;;;11.40;1.50;;;;;;;8.01;88.54;100298.13;4977961;28;20122;-50
2022/11/25 10:28:33;;;;;;;15.52;3.45;;;;;;;8.07;88.40;100296.78;4965448;28;20058;-45
2022/11/25 10:31:28;;;;;;;9.40;1.88;;;;;;;8.10;88.52;100307.13;4962869;28;20059;-45
2022/11/25 10:34:59;;;;;;;18.48;4.03;;;;;;;8.12;88.43;100315.88;4969425;28;20468;-44
2022/11/25 10:37:53;;;;;;;11.50;2.25;;;;;;;8.14;88.32;100297.03;4902448;29;20062;-45
2022/11/25 10:40:47;;;;;;;9.88;1.88;;;;;;;8.18;88.38;100314.50;4969755;28;20054;-45
2022/11/25 10:43:36;;;;;;;13.32;3.35;;;;;;;8.20;88.24;100317.72;4968670;28;20053;-46
2022/11/25 10:46:31;;;;;;;21.42;3.80;;;;;;;8.24;88.05;100321.41;4961648;28;20051;-45
2022/11/25 10:49:37;;;;;;;12.23;2.55;;;;;;;8.27;88.13;100326.28;4961567;28;20117;-48
2022/11/25 10:52:29;;;;;;;10.13;2.78;;;;;;;8.31;88.06;100318.94;4968833;28;20409;-46
2022/11/25 10:55:25;;;;;;;8.75;1.85;;;;;;;8.34;87.88;100330.09;4968306;28;20043;-45
2022/11/25 10:58:26;;;;;;;7.78;1.98;;;;;;;8.37;87.90;100334.13;4958375;28;20059;-51
2022/11/25 11:01:20;;;;;;;19.58;2.25;;;;;;;8.41;87.82;100337.81;4969359;28;20067;-47
2022/11/25 11:04:14;;;;;;;16.17;2.75;;;;;;;8.45;87.55;100335.97;4967890;28;20051;-48
2022/11/25 11:07:07;;;;;;;17.20;2.92;;;;;;;8.45;87.47;100347.00;4969394;28;20442;-46
2022/11/25 11:10:16;;;;;;;14.60;1.83;;;;;;;8.47;87.42;100355.78;4967068;28;20047;-45
2022/11/25 11:13:16;;;;;;;15.85;2.92;;;;;;;8.48;87.40;100354.63;4967970;28;20069;-46
2022/11/25 11:16:22;;;;;;;7.78;2.13;;;;;;;8.51;87.22;100357.50;4968327;28;20055;-50
2022/11/25 11:19:26;;;;;;;9.82;1.58;;;;;;;8.55;86.86;100352.13;4968833;28;20054;-45
2022/11/25 11:22:15;;;;;;;11.52;2.50;;;;;;;8.57;87.23;100360.88;4968160;28;20425;-50
2022/11/25 11:25:26;;;;;;;21.25;5.28;;;;;;;8.58;87.30;100360.50;4974766;28;20151;-46
2022/11/25 11:28:33;;;;;;;8.73;1.63;;;;;;;8.61;86.91;100372.00;4968541;28;20485;-45
2022/11/25 11:31:30;;;;;;;13.13;2.10;;;;;;;8.61;86.71;100372.00;4968995;28;20501;-45
2022/11/25 11:34:45;;;;;;;12.93;2.30;;;;;;;8.61;86.74;100372.81;4967434;28;20054;-45
2022/11/25 11:37:43;;;;;;;15.32;3.40;;;;;;;8.63;86.85;100375.25;4968643;28;20512;-45
2022/11/25 11:40:39;;;;;;;9.85;2.40;;;;;;;8.65;86.60;100381.22;4967708;28;20043;-45
2022/11/25 11:43:38;;;;;;;13.90;1.70;;;;;;;8.67;86.67;100382.50;4968226;28;20397;-46
2022/11/25 11:46:40;;;;;;;8.55;1.33;;;;;;;8.71;86.47;100382.63;4967472;28;20055;-51
2022/11/25 11:50:18;;;;;;;10.13;2.40;;;;;;;8.71;86.46;100380.66;4958697;28;20055;-44
2022/11/25 11:53:27;;;;;;;12.00;2.05;;;;;;;8.73;86.42;100392.19;4928032;29;20068;-45
2022/11/25 11:56:28;;;;;;;11.68;2.08;;;;;;;8.75;86.49;100411.97;4959188;28;20485;-45
2022/11/25 11:59:50;;;;;;;11.70;2.63;;;;;;;8.78;86.33;100407.72;4966260;28;20054;-45
2022/11/25 12:02:55;;;;;;;11.88;2.28;;;;;;;8.80;86.31;100422.78;4967429;28;20058;-45
2022/11/25 12:05:42;;;;;;;7.15;1.90;;;;;;;8.81;86.06;100410.59;4967135;28;20046;-46
2022/11/25 12:08:37;;;;;;;15.00;4.35;;;;;;;8.83;86.17;100429.56;4955803;28;20046;-45
2022/11/25 12:11:29;;;;;;;13.43;2.58;;;;;;;8.85;86.16;100428.09;4967827;28;20209;-50
2022/11/25 12:14:38;;;;;;;10.45;1.75;;;;;;;8.86;86.23;100435.22;4967501;28;20055;-45
2022/11/25 12:17:39;;;;;;;10.20;2.25;;;;;;;8.89;86.08;100429.03;4967227;28;20540;-46
2022/11/25 12:20:48;;;;;;;12.30;2.47;;;;;;;8.94;86.03;100439.03;4967693;28;20496;-45
2022/11/25 12:23:57;;;;;;;12.52;1.90;;;;;;;8.97;86.18;100458.50;4970482;28;20085;-47
2022/11/25 12:27:01;;;;;;;11.40;2.22;;;;;;;9.03;86.21;100470.09;4970069;28;20051;-52
2022/11/25 12:30:16;;;;;;;11.55;3.67;;;;;;;9.10;85.96;100468.41;4972152;28;20055;-46
2022/11/25 12:33:06;;;;;;;9.23;1.80;;;;;;;9.15;86.08;100470.97;4958129;28;20616;-44
2022/11/25 12:36:10;;;;;;;12.75;4.00;;;;;;;9.21;85.87;100473.50;4970133;28;20054;-45
2022/11/25 12:39:36;;;;;;;9.55;2.72;;;;;;;9.23;85.85;100471.19;4959760;28;20057;-45
2022/11/25 12:42:27;;;;;;;8.48;2.58;;;;;;;9.24;86.04;100473.59;4971033;28;20057;-45
2022/11/25 12:45:20;;;;;;;9.73;2.00;;;;;;;9.27;85.65;100469.34;4970346;28;20497;-44
2022/11/25 12:48:10;;;;;;;12.30;2.80;;;;;;;9.28;85.44;100480.06;4970740;28;20050;-46
2022/11/25 12:51:22;;;;;;;22.17;2.97;;;;;;;9.30;85.63;100488.00;4970001;28;20043;-45
2022/11/25 12:54:27;;;;;;;11.57;2.15;;;;;;;9.32;85.65;100485.72;4957814;28;20057;-44
2022/11/25 12:58:08;;;;;;;14.25;2.55;;;;;;;9.35;85.61;100490.53;4970685;28;20062;-45
2022/11/25 13:01:00;;;;;;;19.02;3.08;;;;;;;9.36;85.56;100481.09;4931796;28;20159;-44
2022/11/25 13:04:05;;;;;;;;;;;;;;;9.40;85.39;100499.41;4971581;28;20129;-46
2022/11/25 13:07:04;;;;;;;9.23;2.47;;;;;;;9.46;85.19;100500.81;4959801;28;20299;-45
2022/11/25 13:10:12;;;;;;;14.32;2.85;;;;;;;9.56;85.23;100518.88;4963698;28;20443;-45
2022/11/25 13:13:06;;;;;;;7.60;1.90;;;;;;;9.59;84.96;100518.19;4970201;28;20141;-45
2022/11/25 13:15:58;;;;;;;10.05;3.05;;;;;;;9.65;84.67;100523.19;4970698;28;20153;-45
2022/11/25 13:18:46;;;;;;;7.15;1.48;;;;;;;9.77;84.58;100530.66;4969405;28;20057;-47
2022/11/25 13:21:34;;;;;;;18.20;3.33;;;;;;;9.91;84.29;100535.84;4969296;28;20039;-46
2022/11/25 13:24:53;;;;;;;13.23;3.05;;;;;;;10.09;84.10;100540.78;4980047;28;20062;-47
2022/11/25 13:27:40;;;;;;;11.88;2.55;;;;;;;10.18;84.05;100540.72;4927921;29;20047;-44
2022/11/25 13:30:33;;;;;;;9.00;1.88;;;;;;;10.33;83.80;100543.56;4959812;28;20493;-44
2022/11/25 13:33:23;;;;;;;13.00;2.20;;;;;;;10.44;83.18;100546.66;4970650;28;20051;-45
2022/11/25 13:36:23;;;;;;;16.90;2.72;;;;;;;10.45;83.11;100553.00;4969687;28;20055;-45
2022/11/25 13:39:14;;;;;;;17.65;2.10;;;;;;;10.41;82.69;100552.91;4958787;28;20058;-45